sensor_id;sensor_type;location;lat;lon;timestamp;P1;durP1;ratioP1;P2;durP2;ratioP2
11396;SDS011;5754;43.726;7.416;2023-03-05T00:00:43;7.00;;;4.80;;
11396;SDS011;5754;43.726;7.416;2023-03-05T00:03:18;8.30;;;4.63;;
11396;SDS011;5754;43.726;7.416;2023-03-05T00:05:56;7.80;;;4.97;;
11396;SDS011;5754;43.726;7.416;2023-03-05T00:08:30;7.23;;;4.60;;
11396;SDS011;5754;43.726;7.416;2023-03-05T00:11:05;9.30;;;4.70;;
11396;SDS011;5754;43.726;7.416;2023-03-05T00:13:40;10.47;;;4.27;;
11396;SDS011;5754;43.726;7.416;2023-03-05T00:16:14;12.67;;;4.90;;
11396;SDS011;5754;43.726;7.416;2023-03-05T00:18:49;7.20;;;4.80;;
11396;SDS011;5754;43.726;7.416;2023-03-05T00:21:24;7.47;;;4.10;;
11396;SDS011;5754;43.726;7.416;2023-03-05T00:24:00;8.57;;;4.73;;
11396;SDS011;5754;43.726;7.416;2023-03-05T00:26:35;5.87;;;4.17;;
11396;SDS011;5754;43.726;7.416;2023-03-05T00:29:15;8.43;;;4.00;;
11396;SDS011;5754;43.726;7.416;2023-03-05T00:31:50;6.13;;;4.00;;
11396;SDS011;5754;43.726;7.416;2023-03-05T00:34:25;7.53;;;4.37;;
11396;SDS011;5754;43.726;7.416;2023-03-05T00:37:00;6.97;;;4.43;;
11396;SDS011;5754;43.726;7.416;2023-03-05T00:39:35;6.80;;;4.47;;
11396;SDS011;5754;43.726;7.416;2023-03-05T00:42:09;6.47;;;4.50;;
11396;SDS011;5754;43.726;7.416;2023-03-05T00:44:44;9.07;;;4.40;;
11396;SDS011;5754;43.726;7.416;2023-03-05T00:47:18;5.33;;;4.70;;
11396;SDS011;5754;43.726;7.416;2023-03-05T00:49:52;8.87;;;4.60;;
11396;SDS011;5754;43.726;7.416;2023-03-05T00:52:26;8.83;;;4.63;;
11396;SDS011;5754;43.726;7.416;2023-03-05T00:55:00;8.00;;;5.00;;
11396;SDS011;5754;43.726;7.416;2023-03-05T00:57:35;8.17;;;4.87;;
11396;SDS011;5754;43.726;7.416;2023-03-05T01:00:10;8.47;;;4.87;;
11396;SDS011;5754;43.726;7.416;2023-03-05T01:02:45;9.00;;;4.93;;
11396;SDS011;5754;43.726;7.416;2023-03-05T01:05:20;7.73;;;4.57;;
11396;SDS011;5754;43.726;7.416;2023-03-05T01:07:54;7.57;;;4.47;;
11396;SDS011;5754;43.726;7.416;2023-03-05T01:10:30;8.57;;;4.70;;
11396;SDS011;5754;43.726;7.416;2023-03-05T01:13:05;8.17;;;4.23;;
11396;SDS011;5754;43.726;7.416;2023-03-05T01:15:39;6.87;;;4.60;;
11396;SDS011;5754;43.726;7.416;2023-03-05T01:18:14;6.70;;;4.80;;
11396;SDS011;5754;43.726;7.416;2023-03-05T01:20:48;7.33;;;4.70;;
11396;SDS011;5754;43.726;7.416;2023-03-05T01:23:23;9.90;;;5.47;;
11396;SDS011;5754;43.726;7.416;2023-03-05T01:25:58;5.90;;;4.60;;
11396;SDS011;5754;43.726;7.416;2023-03-05T01:28:33;8.57;;;4.70;;
11396;SDS011;5754;43.726;7.416;2023-03-05T01:31:08;7.97;;;4.83;;
11396;SDS011;5754;43.726;7.416;2023-03-05T01:33:43;7.43;;;5.00;;
11396;SDS011;5754;43.726;7.416;2023-03-05T01:36:20;8.17;;;5.07;;
11396;SDS011;5754;43.726;7.416;2023-03-05T01:38:57;10.40;;;5.07;;
11396;SDS011;5754;43.726;7.416;2023-03-05T01:41:31;10.33;;;5.70;;
11396;SDS011;5754;43.726;7.416;2023-03-05T01:44:06;7.10;;;5.07;;
11396;SDS011;5754;43.726;7.416;2023-03-05T01:46:40;7.40;;;5.20;;
11396;SDS011;5754;43.726;7.416;2023-03-05T01:49:34;12.53;;;5.53;;
11396;SDS011;5754;43.726;7.416;2023-03-05T01:54:55;7.20;;;5.57;;
11396;SDS011;5754;43.726;7.416;2023-03-05T01:57:31;8.30;;;5.77;;
11396;SDS011;5754;43.726;7.416;2023-03-05T02:00:16;8.90;;;5.97;;
11396;SDS011;5754;43.726;7.416;2023-03-05T02:02:52;7.63;;;5.70;;
11396;SDS011;5754;43.726;7.416;2023-03-05T02:05:28;6.87;;;5.63;;
11396;SDS011;5754;43.726;7.416;2023-03-05T02:08:06;7.03;;;5.80;;
11396;SDS011;5754;43.726;7.416;2023-03-05T02:10:42;16.50;;;6.60;;
11396;SDS011;5754;43.726;7.416;2023-03-05T02:13:22;7.67;;;5.60;;
11396;SDS011;5754;43.726;7.416;2023-03-05T02:15:57;7.10;;;5.70;;
11396;SDS011;5754;43.726;7.416;2023-03-05T02:18:33;7.00;;;5.27;;
11396;SDS011;5754;43.726;7.416;2023-03-05T02:21:08;7.57;;;5.40;;
11396;SDS011;5754;43.726;7.416;2023-03-05T02:23:43;7.53;;;5.67;;
11396;SDS011;5754;43.726;7.416;2023-03-05T02:26:18;6.43;;;5.17;;
11396;SDS011;5754;43.726;7.416;2023-03-05T02:28:56;9.07;;;5.10;;
11396;SDS011;5754;43.726;7.416;2023-03-05T02:31:31;7.30;;;5.10;;
11396;SDS011;5754;43.726;7.416;2023-03-05T02:34:07;9.40;;;4.90;;
11396;SDS011;5754;43.726;7.416;2023-03-05T02:36:42;7.83;;;4.80;;
11396;SDS011;5754;43.726;7.416;2023-03-05T02:39:19;6.73;;;4.23;;
11396;SDS011;5754;43.726;7.416;2023-03-05T02:41:53;6.83;;;4.27;;
11396;SDS011;5754;43.726;7.416;2023-03-05T02:44:28;9.33;;;4.83;;
11396;SDS011;5754;43.726;7.416;2023-03-05T02:47:02;5.93;;;4.70;;
11396;SDS011;5754;43.726;7.416;2023-03-05T02:49:37;9.97;;;5.03;;
11396;SDS011;5754;43.726;7.416;2023-03-05T02:52:12;7.57;;;4.50;;
11396;SDS011;5754;43.726;7.416;2023-03-05T02:54:48;9.10;;;4.27;;
11396;SDS011;5754;43.726;7.416;2023-03-05T02:57:23;10.20;;;4.60;;
11396;SDS011;5754;43.726;7.416;2023-03-05T02:59:58;10.60;;;4.90;;
11396;SDS011;5754;43.726;7.416;2023-03-05T03:02:33;9.80;;;4.63;;
11396;SDS011;5754;43.726;7.416;2023-03-05T03:05:07;7.47;;;4.80;;
11396;SDS011;5754;43.726;7.416;2023-03-05T03:07:42;8.90;;;4.80;;
11396;SDS011;5754;43.726;7.416;2023-03-05T03:10:17;7.87;;;4.37;;
11396;SDS011;5754;43.726;7.416;2023-03-05T03:12:51;6.07;;;4.67;;
11396;SDS011;5754;43.726;7.416;2023-03-05T03:15:26;8.30;;;4.97;;
11396;SDS011;5754;43.726;7.416;2023-03-05T03:18:00;5.57;;;4.07;;
11396;SDS011;5754;43.726;7.416;2023-03-05T03:20:36;6.97;;;4.80;;
11396;SDS011;5754;43.726;7.416;2023-03-05T03:23:11;7.07;;;4.37;;
11396;SDS011;5754;43.726;7.416;2023-03-05T03:25:46;6.33;;;4.70;;
11396;SDS011;5754;43.726;7.416;2023-03-05T03:28:20;5.20;;;4.60;;
11396;SDS011;5754;43.726;7.416;2023-03-05T03:30:54;7.23;;;4.93;;
11396;SDS011;5754;43.726;7.416;2023-03-05T03:33:29;7.13;;;4.43;;
11396;SDS011;5754;43.726;7.416;2023-03-05T03:36:04;6.33;;;4.67;;
11396;SDS011;5754;43.726;7.416;2023-03-05T03:38:38;5.60;;;4.30;;
11396;SDS011;5754;43.726;7.416;2023-03-05T03:41:12;6.33;;;3.97;;
11396;SDS011;5754;43.726;7.416;2023-03-05T03:43:47;9.27;;;4.10;;
11396;SDS011;5754;43.726;7.416;2023-03-05T03:46:21;5.10;;;4.07;;
11396;SDS011;5754;43.726;7.416;2023-03-05T03:48:56;5.27;;;4.60;;
11396;SDS011;5754;43.726;7.416;2023-03-05T03:51:30;8.50;;;4.80;;
11396;SDS011;5754;43.726;7.416;2023-03-05T03:54:04;4.43;;;3.97;;
11396;SDS011;5754;43.726;7.416;2023-03-05T03:56:39;4.60;;;4.20;;
11396;SDS011;5754;43.726;7.416;2023-03-05T03:59:13;7.40;;;4.53;;
11396;SDS011;5754;43.726;7.416;2023-03-05T04:01:48;6.83;;;4.60;;
11396;SDS011;5754;43.726;7.416;2023-03-05T04:04:22;6.37;;;4.33;;
11396;SDS011;5754;43.726;7.416;2023-03-05T04:06:59;8.00;;;5.00;;
11396;SDS011;5754;43.726;7.416;2023-03-05T04:09:33;5.77;;;4.80;;
11396;SDS011;5754;43.726;7.416;2023-03-05T04:12:07;7.93;;;4.97;;
11396;SDS011;5754;43.726;7.416;2023-03-05T04:14:43;5.97;;;5.10;;
11396;SDS011;5754;43.726;7.416;2023-03-05T04:17:18;5.63;;;4.60;;
11396;SDS011;5754;43.726;7.416;2023-03-05T04:19:53;6.17;;;4.50;;
11396;SDS011;5754;43.726;7.416;2023-03-05T04:22:27;5.87;;;5.20;;
11396;SDS011;5754;43.726;7.416;2023-03-05T04:25:02;7.30;;;5.10;;
11396;SDS011;5754;43.726;7.416;2023-03-05T04:27:39;7.70;;;4.90;;
11396;SDS011;5754;43.726;7.416;2023-03-05T04:30:13;7.23;;;5.47;;
11396;SDS011;5754;43.726;7.416;2023-03-05T04:32:48;7.43;;;5.17;;
11396;SDS011;5754;43.726;7.416;2023-03-05T04:35:22;8.13;;;5.10;;
11396;SDS011;5754;43.726;7.416;2023-03-05T04:37:56;9.93;;;5.50;;
11396;SDS011;5754;43.726;7.416;2023-03-05T04:40:30;7.23;;;5.93;;
11396;SDS011;5754;43.726;7.416;2023-03-05T04:43:05;8.73;;;5.10;;
11396;SDS011;5754;43.726;7.416;2023-03-05T04:45:40;9.20;;;5.53;;
11396;SDS011;5754;43.726;7.416;2023-03-05T04:48:15;8.13;;;5.37;;
11396;SDS011;5754;43.726;7.416;2023-03-05T04:50:51;8.53;;;5.70;;
11396;SDS011;5754;43.726;7.416;2023-03-05T04:53:26;9.13;;;5.00;;
11396;SDS011;5754;43.726;7.416;2023-03-05T04:56:00;9.90;;;4.90;;
11396;SDS011;5754;43.726;7.416;2023-03-05T04:58:35;8.30;;;4.80;;
11396;SDS011;5754;43.726;7.416;2023-03-05T05:01:10;7.60;;;5.23;;
11396;SDS011;5754;43.726;7.416;2023-03-05T05:03:44;7.83;;;5.27;;
11396;SDS011;5754;43.726;7.416;2023-03-05T05:06:18;6.90;;;5.07;;
11396;SDS011;5754;43.726;7.416;2023-03-05T05:08:53;7.77;;;5.10;;
11396;SDS011;5754;43.726;7.416;2023-03-05T05:11:27;6.57;;;4.93;;
11396;SDS011;5754;43.726;7.416;2023-03-05T05:14:02;9.80;;;5.30;;
11396;SDS011;5754;43.726;7.416;2023-03-05T05:16:37;6.30;;;4.67;;
11396;SDS011;5754;43.726;7.416;2023-03-05T05:19:13;6.17;;;4.40;;
11396;SDS011;5754;43.726;7.416;2023-03-05T05:21:48;9.70;;;5.17;;
11396;SDS011;5754;43.726;7.416;2023-03-05T05:24:23;5.37;;;4.43;;
11396;SDS011;5754;43.726;7.416;2023-03-05T05:26:57;9.80;;;4.93;;
11396;SDS011;5754;43.726;7.416;2023-03-05T05:29:31;6.83;;;4.60;;
11396;SDS011;5754;43.726;7.416;2023-03-05T05:32:06;8.37;;;4.83;;
11396;SDS011;5754;43.726;7.416;2023-03-05T05:34:42;7.37;;;4.50;;
11396;SDS011;5754;43.726;7.416;2023-03-05T05:37:17;7.90;;;4.73;;
11396;SDS011;5754;43.726;7.416;2023-03-05T05:39:51;9.10;;;4.53;;
11396;SDS011;5754;43.726;7.416;2023-03-05T05:42:26;7.87;;;4.50;;
11396;SDS011;5754;43.726;7.416;2023-03-05T05:45:02;6.83;;;4.20;;
11396;SDS011;5754;43.726;7.416;2023-03-05T05:47:37;6.57;;;4.73;;
11396;SDS011;5754;43.726;7.416;2023-03-05T05:50:11;6.43;;;4.57;;
11396;SDS011;5754;43.726;7.416;2023-03-05T05:52:46;7.37;;;5.10;;
11396;SDS011;5754;43.726;7.416;2023-03-05T05:55:21;6.53;;;4.67;;
11396;SDS011;5754;43.726;7.416;2023-03-05T05:57:55;6.63;;;4.53;;
11396;SDS011;5754;43.726;7.416;2023-03-05T06:00:29;7.80;;;5.13;;
11396;SDS011;5754;43.726;7.416;2023-03-05T06:03:04;7.03;;;4.60;;
11396;SDS011;5754;43.726;7.416;2023-03-05T06:05:41;5.10;;;4.60;;
11396;SDS011;5754;43.726;7.416;2023-03-05T06:08:15;7.07;;;4.87;;
11396;SDS011;5754;43.726;7.416;2023-03-05T06:10:53;8.43;;;5.10;;
11396;SDS011;5754;43.726;7.416;2023-03-05T06:13:28;8.30;;;5.23;;
11396;SDS011;5754;43.726;7.416;2023-03-05T06:16:04;7.13;;;5.20;;
11396;SDS011;5754;43.726;7.416;2023-03-05T06:18:39;8.07;;;5.07;;
11396;SDS011;5754;43.726;7.416;2023-03-05T06:21:14;9.73;;;5.00;;
11396;SDS011;5754;43.726;7.416;2023-03-05T06:23:49;35.63;;;16.13;;
11396;SDS011;5754;43.726;7.416;2023-03-05T06:26:24;7.20;;;5.70;;
11396;SDS011;5754;43.726;7.416;2023-03-05T06:28:58;7.50;;;5.13;;
11396;SDS011;5754;43.726;7.416;2023-03-05T06:31:32;7.13;;;5.20;;
11396;SDS011;5754;43.726;7.416;2023-03-05T06:34:09;10.27;;;5.40;;
11396;SDS011;5754;43.726;7.416;2023-03-05T06:36:44;8.37;;;5.23;;
11396;SDS011;5754;43.726;7.416;2023-03-05T06:39:22;9.23;;;5.60;;
11396;SDS011;5754;43.726;7.416;2023-03-05T06:41:56;9.27;;;5.63;;
11396;SDS011;5754;43.726;7.416;2023-03-05T06:44:31;8.87;;;5.47;;
11396;SDS011;5754;43.726;7.416;2023-03-05T06:47:07;7.97;;;5.40;;
11396;SDS011;5754;43.726;7.416;2023-03-05T06:49:44;6.60;;;5.20;;
11396;SDS011;5754;43.726;7.416;2023-03-05T06:52:18;7.73;;;6.00;;
11396;SDS011;5754;43.726;7.416;2023-03-05T06:54:53;6.00;;;5.40;;
11396;SDS011;5754;43.726;7.416;2023-03-05T06:57:28;7.13;;;5.43;;
11396;SDS011;5754;43.726;7.416;2023-03-05T07:00:03;8.03;;;5.43;;
11396;SDS011;5754;43.726;7.416;2023-03-05T07:02:44;6.77;;;4.97;;
11396;SDS011;5754;43.726;7.416;2023-03-05T07:05:18;9.13;;;4.80;;
11396;SDS011;5754;43.726;7.416;2023-03-05T07:07:55;9.20;;;4.87;;
11396;SDS011;5754;43.726;7.416;2023-03-05T07:10:29;9.97;;;5.10;;
11396;SDS011;5754;43.726;7.416;2023-03-05T07:13:04;6.17;;;4.70;;
11396;SDS011;5754;43.726;7.416;2023-03-05T07:15:39;9.17;;;5.00;;
11396;SDS011;5754;43.726;7.416;2023-03-05T07:18:14;6.20;;;4.63;;
11396;SDS011;5754;43.726;7.416;2023-03-05T07:20:48;5.93;;;4.47;;
11396;SDS011;5754;43.726;7.416;2023-03-05T07:23:23;5.90;;;4.30;;
11396;SDS011;5754;43.726;7.416;2023-03-05T07:25:59;5.53;;;4.63;;
11396;SDS011;5754;43.726;7.416;2023-03-05T07:28:34;6.60;;;4.65;;
11396;SDS011;5754;43.726;7.416;2023-03-05T07:31:12;4.90;;;4.20;;
11396;SDS011;5754;43.726;7.416;2023-03-05T07:33:47;7.15;;;4.25;;
11396;SDS011;5754;43.726;7.416;2023-03-05T07:36:22;9.05;;;4.45;;
11396;SDS011;5754;43.726;7.416;2023-03-05T07:38:57;6.35;;;3.80;;
11396;SDS011;5754;43.726;7.416;2023-03-05T07:41:32;8.70;;;3.90;;
11396;SDS011;5754;43.726;7.416;2023-03-05T07:44:06;5.70;;;3.50;;
11396;SDS011;5754;43.726;7.416;2023-03-05T07:46:41;5.67;;;4.00;;
11396;SDS011;5754;43.726;7.416;2023-03-05T07:49:15;6.03;;;4.23;;
11396;SDS011;5754;43.726;7.416;2023-03-05T07:51:50;5.17;;;3.80;;
11396;SDS011;5754;43.726;7.416;2023-03-05T07:54:24;7.87;;;3.50;;
11396;SDS011;5754;43.726;7.416;2023-03-05T07:56:58;7.70;;;3.77;;
11396;SDS011;5754;43.726;7.416;2023-03-05T07:59:33;6.83;;;4.23;;
11396;SDS011;5754;43.726;7.416;2023-03-05T08:02:09;5.57;;;4.07;;
11396;SDS011;5754;43.726;7.416;2023-03-05T08:04:43;8.33;;;5.17;;
11396;SDS011;5754;43.726;7.416;2023-03-05T08:07:17;7.37;;;4.37;;
11396;SDS011;5754;43.726;7.416;2023-03-05T08:09:52;5.53;;;4.47;;
11396;SDS011;5754;43.726;7.416;2023-03-05T08:12:27;7.13;;;5.03;;
11396;SDS011;5754;43.726;7.416;2023-03-05T08:15:02;6.40;;;3.80;;
11396;SDS011;5754;43.726;7.416;2023-03-05T08:17:36;7.53;;;4.13;;
11396;SDS011;5754;43.726;7.416;2023-03-05T08:20:11;5.80;;;4.27;;
11396;SDS011;5754;43.726;7.416;2023-03-05T08:22:46;4.67;;;3.00;;
11396;SDS011;5754;43.726;7.416;2023-03-05T08:25:21;5.17;;;2.90;;
11396;SDS011;5754;43.726;7.416;2023-03-05T08:27:55;3.73;;;2.50;;
11396;SDS011;5754;43.726;7.416;2023-03-05T08:30:30;4.47;;;2.90;;
11396;SDS011;5754;43.726;7.416;2023-03-05T08:33:04;5.40;;;3.00;;
11396;SDS011;5754;43.726;7.416;2023-03-05T08:35:39;3.47;;;2.70;;
11396;SDS011;5754;43.726;7.416;2023-03-05T08:38:13;4.20;;;2.60;;
11396;SDS011;5754;43.726;7.416;2023-03-05T08:40:47;5.13;;;2.67;;
11396;SDS011;5754;43.726;7.416;2023-03-05T08:43:22;2.83;;;2.43;;
11396;SDS011;5754;43.726;7.416;2023-03-05T08:45:58;3.93;;;2.70;;
11396;SDS011;5754;43.726;7.416;2023-03-05T08:48:32;5.63;;;2.67;;
11396;SDS011;5754;43.726;7.416;2023-03-05T08:51:08;8.57;;;3.17;;
11396;SDS011;5754;43.726;7.416;2023-03-05T08:53:43;3.43;;;3.10;;
11396;SDS011;5754;43.726;7.416;2023-03-05T08:56:18;10.25;;;6.10;;
11396;SDS011;5754;43.726;7.416;2023-03-05T08:58:52;8.20;;;5.43;;
11396;SDS011;5754;43.726;7.416;2023-03-05T09:01:26;8.23;;;5.55;;
11396;SDS011;5754;43.726;7.416;2023-03-05T09:04:03;8.83;;;5.87;;
11396;SDS011;5754;43.726;7.416;2023-03-05T09:06:37;6.57;;;5.80;;
11396;SDS011;5754;43.726;7.416;2023-03-05T09:09:12;8.67;;;5.93;;
11396;SDS011;5754;43.726;7.416;2023-03-05T09:11:46;8.40;;;6.47;;
11396;SDS011;5754;43.726;7.416;2023-03-05T09:14:21;9.37;;;5.50;;
11396;SDS011;5754;43.726;7.416;2023-03-05T09:16:56;8.70;;;6.27;;
11396;SDS011;5754;43.726;7.416;2023-03-05T09:19:31;10.97;;;7.10;;
11396;SDS011;5754;43.726;7.416;2023-03-05T09:22:05;13.00;;;7.43;;
11396;SDS011;5754;43.726;7.416;2023-03-05T09:24:39;10.70;;;6.43;;
11396;SDS011;5754;43.726;7.416;2023-03-05T09:27:14;8.17;;;5.80;;
11396;SDS011;5754;43.726;7.416;2023-03-05T09:29:48;9.37;;;5.97;;
11396;SDS011;5754;43.726;7.416;2023-03-05T09:32:22;7.27;;;5.40;;
11396;SDS011;5754;43.726;7.416;2023-03-05T09:34:57;9.63;;;5.83;;
11396;SDS011;5754;43.726;7.416;2023-03-05T09:37:32;10.43;;;5.77;;
11396;SDS011;5754;43.726;7.416;2023-03-05T09:40:07;8.93;;;7.40;;
11396;SDS011;5754;43.726;7.416;2023-03-05T09:42:49;11.53;;;8.10;;
11396;SDS011;5754;43.726;7.416;2023-03-05T09:45:39;13.30;;;8.73;;
11396;SDS011;5754;43.726;7.416;2023-03-05T09:48:32;13.17;;;8.00;;
11396;SDS011;5754;43.726;7.416;2023-03-05T09:51:13;9.60;;;8.37;;
11396;SDS011;5754;43.726;7.416;2023-03-05T09:53:56;8.63;;;7.83;;
11396;SDS011;5754;43.726;7.416;2023-03-05T09:56:35;10.77;;;7.93;;
11396;SDS011;5754;43.726;7.416;2023-03-05T09:59:26;13.63;;;7.77;;
11396;SDS011;5754;43.726;7.416;2023-03-05T10:02:09;11.77;;;7.83;;
11396;SDS011;5754;43.726;7.416;2023-03-05T10:04:48;9.67;;;7.00;;
11396;SDS011;5754;43.726;7.416;2023-03-05T10:07:26;11.93;;;8.13;;
11396;SDS011;5754;43.726;7.416;2023-03-05T10:10:13;10.30;;;6.90;;
11396;SDS011;5754;43.726;7.416;2023-03-05T10:12:51;12.23;;;6.87;;
11396;SDS011;5754;43.726;7.416;2023-03-05T10:15:43;8.60;;;7.03;;
11396;SDS011;5754;43.726;7.416;2023-03-05T10:22:32;7.93;;;7.13;;
11396;SDS011;5754;43.726;7.416;2023-03-05T10:28:08;9.47;;;6.53;;
11396;SDS011;5754;43.726;7.416;2023-03-05T10:31:08;9.77;;;7.63;;
11396;SDS011;5754;43.726;7.416;2023-03-05T10:33:51;10.03;;;7.27;;
11396;SDS011;5754;43.726;7.416;2023-03-05T10:36:47;11.90;;;7.60;;
11396;SDS011;5754;43.726;7.416;2023-03-05T10:40:27;11.23;;;8.97;;
11396;SDS011;5754;43.726;7.416;2023-03-05T10:43:14;16.57;;;9.77;;
11396;SDS011;5754;43.726;7.416;2023-03-05T10:45:53;12.97;;;10.43;;
11396;SDS011;5754;43.726;7.416;2023-03-05T10:48:45;14.27;;;9.97;;
11396;SDS011;5754;43.726;7.416;2023-03-05T10:51:45;13.83;;;9.23;;
11396;SDS011;5754;43.726;7.416;2023-03-05T10:54:25;18.50;;;10.13;;
11396;SDS011;5754;43.726;7.416;2023-03-05T11:00:19;12.97;;;9.90;;
11396;SDS011;5754;43.726;7.416;2023-03-05T11:03:05;15.23;;;9.23;;
11396;SDS011;5754;43.726;7.416;2023-03-05T11:05:41;14.87;;;10.47;;
11396;SDS011;5754;43.726;7.416;2023-03-05T11:11:26;15.30;;;9.00;;
11396;SDS011;5754;43.726;7.416;2023-03-05T11:14:03;18.03;;;10.40;;
11396;SDS011;5754;43.726;7.416;2023-03-05T11:16:47;15.20;;;9.37;;
11396;SDS011;5754;43.726;7.416;2023-03-05T11:19:26;12.60;;;8.30;;
11396;SDS011;5754;43.726;7.416;2023-03-05T11:22:07;13.00;;;8.37;;
11396;SDS011;5754;43.726;7.416;2023-03-05T11:24:43;11.83;;;8.30;;
11396;SDS011;5754;43.726;7.416;2023-03-05T11:27:34;14.07;;;9.27;;
11396;SDS011;5754;43.726;7.416;2023-03-05T11:30:21;14.60;;;9.27;;
11396;SDS011;5754;43.726;7.416;2023-03-05T11:33:15;11.83;;;8.70;;
11396;SDS011;5754;43.726;7.416;2023-03-05T11:35:53;13.70;;;8.70;;
11396;SDS011;5754;43.726;7.416;2023-03-05T11:38:49;12.43;;;8.73;;
11396;SDS011;5754;43.726;7.416;2023-03-05T11:41:28;14.87;;;8.47;;
11396;SDS011;5754;43.726;7.416;2023-03-05T11:44:09;15.30;;;8.20;;
11396;SDS011;5754;43.726;7.416;2023-03-05T11:46:47;16.93;;;9.73;;
11396;SDS011;5754;43.726;7.416;2023-03-05T11:49:24;10.80;;;9.53;;
11396;SDS011;5754;43.726;7.416;2023-03-05T11:52:07;18.97;;;9.80;;
11396;SDS011;5754;43.726;7.416;2023-03-05T11:55:05;13.23;;;10.13;;
11396;SDS011;5754;43.726;7.416;2023-03-05T11:57:42;12.77;;;8.47;;
11396;SDS011;5754;43.726;7.416;2023-03-05T12:00:24;15.37;;;8.77;;
11396;SDS011;5754;43.726;7.416;2023-03-05T12:03:01;13.80;;;9.70;;
11396;SDS011;5754;43.726;7.416;2023-03-05T12:05:39;13.00;;;9.43;;
11396;SDS011;5754;43.726;7.416;2023-03-05T12:08:17;31.80;;;22.00;;
11396;SDS011;5754;43.726;7.416;2023-03-05T12:10:54;15.07;;;11.20;;
11396;SDS011;5754;43.726;7.416;2023-03-05T12:13:36;23.63;;;15.60;;
11396;SDS011;5754;43.726;7.416;2023-03-05T12:16:37;18.57;;;13.37;;
11396;SDS011;5754;43.726;7.416;2023-03-05T12:19:21;47.47;;;33.90;;
11396;SDS011;5754;43.726;7.416;2023-03-05T12:21:58;267.17;;;115.50;;
11396;SDS011;5754;43.726;7.416;2023-03-05T12:24:34;58.13;;;31.97;;
11396;SDS011;5754;43.726;7.416;2023-03-05T12:27:10;25.20;;;17.57;;
11396;SDS011;5754;43.726;7.416;2023-03-05T12:29:50;17.53;;;12.10;;
11396;SDS011;5754;43.726;7.416;2023-03-05T12:35:45;18.67;;;13.10;;
11396;SDS011;5754;43.726;7.416;2023-03-05T12:38:31;16.90;;;12.37;;
11396;SDS011;5754;43.726;7.416;2023-03-05T12:47:14;14.13;;;12.10;;
11396;SDS011;5754;43.726;7.416;2023-03-05T12:49:50;18.40;;;14.40;;
11396;SDS011;5754;43.726;7.416;2023-03-05T12:52:25;19.77;;;14.73;;
11396;SDS011;5754;43.726;7.416;2023-03-05T12:55:22;16.80;;;14.07;;
11396;SDS011;5754;43.726;7.416;2023-03-05T12:57:58;15.37;;;13.73;;
11396;SDS011;5754;43.726;7.416;2023-03-05T13:00:38;14.97;;;13.47;;
11396;SDS011;5754;43.726;7.416;2023-03-05T13:03:18;16.47;;;13.93;;
11396;SDS011;5754;43.726;7.416;2023-03-05T13:05:54;17.93;;;12.87;;
11396;SDS011;5754;43.726;7.416;2023-03-05T13:08:30;15.47;;;13.00;;
11396;SDS011;5754;43.726;7.416;2023-03-05T13:11:10;14.30;;;12.40;;
11396;SDS011;5754;43.726;7.416;2023-03-05T13:13:49;14.07;;;12.33;;
11396;SDS011;5754;43.726;7.416;2023-03-05T13:16:25;17.73;;;12.90;;
11396;SDS011;5754;43.726;7.416;2023-03-05T13:19:01;15.83;;;13.10;;
11396;SDS011;5754;43.726;7.416;2023-03-05T13:21:36;17.03;;;12.83;;
11396;SDS011;5754;43.726;7.416;2023-03-05T13:24:15;15.13;;;12.03;;
11396;SDS011;5754;43.726;7.416;2023-03-05T13:26:49;13.57;;;11.93;;
11396;SDS011;5754;43.726;7.416;2023-03-05T13:29:24;16.53;;;11.63;;
11396;SDS011;5754;43.726;7.416;2023-03-05T13:32:01;12.90;;;11.07;;
11396;SDS011;5754;43.726;7.416;2023-03-05T13:34:36;14.07;;;11.90;;
11396;SDS011;5754;43.726;7.416;2023-03-05T13:37:21;14.97;;;11.17;;
11396;SDS011;5754;43.726;7.416;2023-03-05T13:40:04;16.93;;;11.40;;
11396;SDS011;5754;43.726;7.416;2023-03-05T13:42:47;13.40;;;11.27;;
11396;SDS011;5754;43.726;7.416;2023-03-05T13:45:24;15.43;;;11.40;;
11396;SDS011;5754;43.726;7.416;2023-03-05T13:47:59;12.33;;;11.03;;
11396;SDS011;5754;43.726;7.416;2023-03-05T13:50:36;15.60;;;11.37;;
11396;SDS011;5754;43.726;7.416;2023-03-05T13:53:19;12.77;;;11.37;;
11396;SDS011;5754;43.726;7.416;2023-03-05T13:55:57;13.40;;;11.60;;
11396;SDS011;5754;43.726;7.416;2023-03-05T14:01:26;14.97;;;11.33;;
11396;SDS011;5754;43.726;7.416;2023-03-05T14:04:15;13.03;;;11.47;;
11396;SDS011;5754;43.726;7.416;2023-03-05T14:06:56;13.93;;;11.33;;
11396;SDS011;5754;43.726;7.416;2023-03-05T14:12:40;12.63;;;11.30;;
11396;SDS011;5754;43.726;7.416;2023-03-05T14:15:20;15.57;;;13.27;;
11396;SDS011;5754;43.726;7.416;2023-03-05T14:18:17;19.03;;;15.30;;
11396;SDS011;5754;43.726;7.416;2023-03-05T14:20:59;18.23;;;14.20;;
11396;SDS011;5754;43.726;7.416;2023-03-05T14:23:44;15.70;;;13.20;;
11396;SDS011;5754;43.726;7.416;2023-03-05T14:26:31;15.97;;;14.27;;
11396;SDS011;5754;43.726;7.416;2023-03-05T14:29:13;18.23;;;15.40;;
11396;SDS011;5754;43.726;7.416;2023-03-05T14:31:54;15.30;;;13.37;;
11396;SDS011;5754;43.726;7.416;2023-03-05T14:34:30;17.50;;;15.63;;
11396;SDS011;5754;43.726;7.416;2023-03-05T14:37:20;17.07;;;15.37;;
11396;SDS011;5754;43.726;7.416;2023-03-05T14:39:55;16.53;;;14.73;;
11396;SDS011;5754;43.726;7.416;2023-03-05T14:42:34;17.40;;;15.43;;
11396;SDS011;5754;43.726;7.416;2023-03-05T14:45:13;18.00;;;15.57;;
11396;SDS011;5754;43.726;7.416;2023-03-05T14:47:48;19.33;;;17.23;;
11396;SDS011;5754;43.726;7.416;2023-03-05T14:50:31;17.63;;;15.70;;
11396;SDS011;5754;43.726;7.416;2023-03-05T14:53:12;19.60;;;15.03;;
11396;SDS011;5754;43.726;7.416;2023-03-05T14:55:49;18.17;;;15.83;;
11396;SDS011;5754;43.726;7.416;2023-03-05T14:58:27;19.70;;;16.87;;
11396;SDS011;5754;43.726;7.416;2023-03-05T15:01:04;19.23;;;17.23;;
11396;SDS011;5754;43.726;7.416;2023-03-05T15:03:40;17.60;;;15.73;;
11396;SDS011;5754;43.726;7.416;2023-03-05T15:06:19;18.30;;;15.67;;
11396;SDS011;5754;43.726;7.416;2023-03-05T15:08:56;18.53;;;16.57;;
11396;SDS011;5754;43.726;7.416;2023-03-05T15:11:30;19.63;;;15.77;;
11396;SDS011;5754;43.726;7.416;2023-03-05T15:14:04;18.73;;;16.40;;
11396;SDS011;5754;43.726;7.416;2023-03-05T15:16:40;18.87;;;16.33;;
11396;SDS011;5754;43.726;7.416;2023-03-05T15:19:15;19.60;;;17.50;;
11396;SDS011;5754;43.726;7.416;2023-03-05T15:21:49;21.03;;;17.80;;
11396;SDS011;5754;43.726;7.416;2023-03-05T15:24:24;19.77;;;16.43;;
11396;SDS011;5754;43.726;7.416;2023-03-05T15:26:58;19.30;;;16.77;;
11396;SDS011;5754;43.726;7.416;2023-03-05T15:29:33;21.97;;;16.70;;
11396;SDS011;5754;43.726;7.416;2023-03-05T15:32:07;20.33;;;17.97;;
11396;SDS011;5754;43.726;7.416;2023-03-05T15:34:42;18.33;;;16.43;;
11396;SDS011;5754;43.726;7.416;2023-03-05T15:37:16;21.23;;;18.87;;
11396;SDS011;5754;43.726;7.416;2023-03-05T15:39:51;22.17;;;17.90;;
11396;SDS011;5754;43.726;7.416;2023-03-05T15:42:26;20.63;;;17.07;;
11396;SDS011;5754;43.726;7.416;2023-03-05T15:45:01;21.70;;;17.20;;
11396;SDS011;5754;43.726;7.416;2023-03-05T15:47:35;21.90;;;17.10;;
11396;SDS011;5754;43.726;7.416;2023-03-05T15:50:10;20.47;;;16.77;;
11396;SDS011;5754;43.726;7.416;2023-03-05T15:52:45;20.03;;;17.93;;
11396;SDS011;5754;43.726;7.416;2023-03-05T15:55:19;20.40;;;17.40;;
11396;SDS011;5754;43.726;7.416;2023-03-05T15:57:54;20.17;;;17.20;;
11396;SDS011;5754;43.726;7.416;2023-03-05T16:00:29;20.37;;;17.53;;
11396;SDS011;5754;43.726;7.416;2023-03-05T16:03:04;18.83;;;16.13;;
11396;SDS011;5754;43.726;7.416;2023-03-05T16:05:38;20.23;;;17.73;;
11396;SDS011;5754;43.726;7.416;2023-03-05T16:08:13;22.43;;;17.80;;
11396;SDS011;5754;43.726;7.416;2023-03-05T16:10:47;20.17;;;17.60;;
11396;SDS011;5754;43.726;7.416;2023-03-05T16:13:22;20.63;;;18.43;;
11396;SDS011;5754;43.726;7.416;2023-03-05T16:16:01;22.00;;;18.17;;
11396;SDS011;5754;43.726;7.416;2023-03-05T16:18:39;23.97;;;19.93;;
11396;SDS011;5754;43.726;7.416;2023-03-05T16:21:14;24.80;;;19.30;;
11396;SDS011;5754;43.726;7.416;2023-03-05T16:23:49;23.07;;;19.40;;